sensor_id;sensor_type;location;lat;lon;timestamp;temperature;humidity
44643;DHT22;33930;-34.276;150.954;2022-08-14T00:01:24;18.60;95.70
44643;DHT22;33930;-34.276;150.954;2022-08-14T00:03:51;18.10;97.20
44643;DHT22;33930;-34.276;150.954;2022-08-14T00:06:18;17.80;96.30
44643;DHT22;33930;-34.276;150.954;2022-08-14T00:08:46;17.60;96.90
44643;DHT22;33930;-34.276;150.954;2022-08-14T00:11:13;16.90;96.20
44643;DHT22;33930;-34.276;150.954;2022-08-14T00:13:41;16.90;97.20
44643;DHT22;33930;-34.276;150.954;2022-08-14T00:16:08;17.30;96.70
44643;DHT22;33930;-34.276;150.954;2022-08-14T00:18:39;17.60;95.90
44643;DHT22;33930;-34.276;150.954;2022-08-14T00:21:07;18.20;96.80
44643;DHT22;33930;-34.276;150.954;2022-08-14T00:23:34;18.90;95.10
44643;DHT22;33930;-34.276;150.954;2022-08-14T00:26:02;19.60;95.00
44643;DHT22;33930;-34.276;150.954;2022-08-14T00:28:29;20.10;95.50
44643;DHT22;33930;-34.276;150.954;2022-08-14T00:30:57;21.10;93.80
44643;DHT22;33930;-34.276;150.954;2022-08-14T00:33:26;22.60;93.10
44643;DHT22;33930;-34.276;150.954;2022-08-14T00:35:54;23.60;91.30
44643;DHT22;33930;-34.276;150.954;2022-08-14T00:38:22;24.20;92.20
44643;DHT22;33930;-34.276;150.954;2022-08-14T00:40:50;24.20;90.80
44643;DHT22;33930;-34.276;150.954;2022-08-14T00:43:17;23.50;90.10
44643;DHT22;33930;-34.276;150.954;2022-08-14T00:45:45;24.00;91.20
44643;DHT22;33930;-34.276;150.954;2022-08-14T00:48:12;24.40;86.40
44643;DHT22;33930;-34.276;150.954;2022-08-14T00:50:40;23.10;87.90
44643;DHT22;33930;-34.276;150.954;2022-08-14T00:53:07;21.80;90.40
44643;DHT22;33930;-34.276;150.954;2022-08-14T00:55:36;21.00;92.40
44643;DHT22;33930;-34.276;150.954;2022-08-14T00:58:07;20.40;91.20
44643;DHT22;33930;-34.276;150.954;2022-08-14T01:00:52;19.80;92.00
44643;DHT22;33930;-34.276;150.954;2022-08-14T01:03:20;19.20;91.60
44643;DHT22;33930;-34.276;150.954;2022-08-14T01:05:50;19.00;92.60
44643;DHT22;33930;-34.276;150.954;2022-08-14T01:08:21;19.00;93.20
44643;DHT22;33930;-34.276;150.954;2022-08-14T01:10:48;18.90;92.70
44643;DHT22;33930;-34.276;150.954;2022-08-14T01:13:22;18.90;93.70
44643;DHT22;33930;-34.276;150.954;2022-08-14T01:15:54;18.70;93.30
44643;DHT22;33930;-34.276;150.954;2022-08-14T01:18:23;18.60;92.90
44643;DHT22;33930;-34.276;150.954;2022-08-14T01:21:09;18.60;93.10
44643;DHT22;33930;-34.276;150.954;2022-08-14T01:23:45;18.40;93.00
44643;DHT22;33930;-34.276;150.954;2022-08-14T01:26:14;18.30;93.40
44643;DHT22;33930;-34.276;150.954;2022-08-14T01:28:43;18.30;93.50
44643;DHT22;33930;-34.276;150.954;2022-08-14T01:31:13;18.50;94.20
44643;DHT22;33930;-34.276;150.954;2022-08-14T01:33:43;18.80;92.80
44643;DHT22;33930;-34.276;150.954;2022-08-14T01:36:15;18.90;92.50
44643;DHT22;33930;-34.276;150.954;2022-08-14T01:38:43;18.90;92.40
44643;DHT22;33930;-34.276;150.954;2022-08-14T01:41:15;18.70;92.60
44643;DHT22;33930;-34.276;150.954;2022-08-14T01:43:52;18.40;91.90
44643;DHT22;33930;-34.276;150.954;2022-08-14T01:46:22;18.10;92.40
44643;DHT22;33930;-34.276;150.954;2022-08-14T01:48:50;17.90;92.50
44643;DHT22;33930;-34.276;150.954;2022-08-14T01:51:20;17.60;92.80
44643;DHT22;33930;-34.276;150.954;2022-08-14T01:53:57;17.70;93.20
44643;DHT22;33930;-34.276;150.954;2022-08-14T01:56:28;17.80;93.30
44643;DHT22;33930;-34.276;150.954;2022-08-14T01:59:20;17.60;92.50
44643;DHT22;33930;-34.276;150.954;2022-08-14T02:01:51;17.40;93.60
44643;DHT22;33930;-34.276;150.954;2022-08-14T02:04:23;17.60;94.60
44643;DHT22;33930;-34.276;150.954;2022-08-14T02:06:51;17.60;95.60
44643;DHT22;33930;-34.276;150.954;2022-08-14T02:09:20;17.60;94.20
44643;DHT22;33930;-34.276;150.954;2022-08-14T02:11:50;17.50;93.20
44643;DHT22;33930;-34.276;150.954;2022-08-14T02:14:18;17.50;93.00
44643;DHT22;33930;-34.276;150.954;2022-08-14T02:16:47;17.50;94.10
44643;DHT22;33930;-34.276;150.954;2022-08-14T02:19:24;17.60;93.30
44643;DHT22;33930;-34.276;150.954;2022-08-14T02:21:57;17.60;93.10
44643;DHT22;33930;-34.276;150.954;2022-08-14T02:24:27;17.60;93.00
44643;DHT22;33930;-34.276;150.954;2022-08-14T02:26:58;17.50;93.10
44643;DHT22;33930;-34.276;150.954;2022-08-14T02:29:29;17.50;92.90
44643;DHT22;33930;-34.276;150.954;2022-08-14T02:31:59;17.30;92.40
44643;DHT22;33930;-34.276;150.954;2022-08-14T02:34:34;17.30;93.40
44643;DHT22;33930;-34.276;150.954;2022-08-14T02:37:11;17.50;94.50
44643;DHT22;33930;-34.276;150.954;2022-08-14T02:39:44;17.70;94.50
44643;DHT22;33930;-34.276;150.954;2022-08-14T02:42:15;17.70;93.30
44643;DHT22;33930;-34.276;150.954;2022-08-14T02:44:43;17.60;93.40
44643;DHT22;33930;-34.276;150.954;2022-08-14T02:47:11;17.60;93.70
44643;DHT22;33930;-34.276;150.954;2022-08-14T02:49:38;17.70;94.20
44643;DHT22;33930;-34.276;150.954;2022-08-14T02:52:06;17.70;92.90
44643;DHT22;33930;-34.276;150.954;2022-08-14T02:54:34;17.80;94.20
44643;DHT22;33930;-34.276;150.954;2022-08-14T02:57:02;18.00;93.70
44643;DHT22;33930;-34.276;150.954;2022-08-14T02:59:34;18.00;92.40
44643;DHT22;33930;-34.276;150.954;2022-08-14T03:02:03;17.90;93.30
44643;DHT22;33930;-34.276;150.954;2022-08-14T03:04:31;18.00;94.60
44643;DHT22;33930;-34.276;150.954;2022-08-14T03:06:58;17.90;93.20
44643;DHT22;33930;-34.276;150.954;2022-08-14T03:09:26;17.90;93.60
44643;DHT22;33930;-34.276;150.954;2022-08-14T03:11:53;17.90;94.20
44643;DHT22;33930;-34.276;150.954;2022-08-14T03:14:21;17.90;94.40
44643;DHT22;33930;-34.276;150.954;2022-08-14T03:16:51;17.80;93.30
44643;DHT22;33930;-34.276;150.954;2022-08-14T03:19:18;17.80;95.20
44643;DHT22;33930;-34.276;150.954;2022-08-14T03:21:46;17.70;93.50
44643;DHT22;33930;-34.276;150.954;2022-08-14T03:24:13;17.60;93.90
44643;DHT22;33930;-34.276;150.954;2022-08-14T03:26:43;17.50;93.90
44643;DHT22;33930;-34.276;150.954;2022-08-14T03:29:13;17.40;93.30
44643;DHT22;33930;-34.276;150.954;2022-08-14T03:31:46;17.40;95.00
44643;DHT22;33930;-34.276;150.954;2022-08-14T03:34:18;17.50;94.10
44643;DHT22;33930;-34.276;150.954;2022-08-14T03:36:49;17.50;94.10
44643;DHT22;33930;-34.276;150.954;2022-08-14T03:39:23;17.50;94.90
44643;DHT22;33930;-34.276;150.954;2022-08-14T03:41:54;17.50;94.60
44643;DHT22;33930;-34.276;150.954;2022-08-14T03:44:23;17.70;95.20
44643;DHT22;33930;-34.276;150.954;2022-08-14T03:46:51;17.60;94.60
44643;DHT22;33930;-34.276;150.954;2022-08-14T03:49:21;17.60;94.00
44643;DHT22;33930;-34.276;150.954;2022-08-14T03:51:50;17.40;93.50
44643;DHT22;33930;-34.276;150.954;2022-08-14T03:54:18;17.40;94.70
44643;DHT22;33930;-34.276;150.954;2022-08-14T03:56:46;17.50;94.10
44643;DHT22;33930;-34.276;150.954;2022-08-14T03:59:13;17.50;94.00
44643;DHT22;33930;-34.276;150.954;2022-08-14T04:01:41;17.50;93.90
44643;DHT22;33930;-34.276;150.954;2022-08-14T04:04:09;17.50;94.20
44643;DHT22;33930;-34.276;150.954;2022-08-14T04:06:37;17.70;94.60
44643;DHT22;33930;-34.276;150.954;2022-08-14T04:09:06;17.60;94.10
44643;DHT22;33930;-34.276;150.954;2022-08-14T04:11:34;17.70;95.00
44643;DHT22;33930;-34.276;150.954;2022-08-14T04:14:03;17.80;94.40
44643;DHT22;33930;-34.276;150.954;2022-08-14T04:16:31;17.90;94.80
44643;DHT22;33930;-34.276;150.954;2022-08-14T04:18:59;18.00;93.60
44643;DHT22;33930;-34.276;150.954;2022-08-14T04:21:30;17.90;93.60
44643;DHT22;33930;-34.276;150.954;2022-08-14T04:23:59;17.70;94.50
44643;DHT22;33930;-34.276;150.954;2022-08-14T04:26:29;17.60;94.10
44643;DHT22;33930;-34.276;150.954;2022-08-14T04:28:57;17.50;95.00
44643;DHT22;33930;-34.276;150.954;2022-08-14T04:31:24;17.40;94.70
44643;DHT22;33930;-34.276;150.954;2022-08-14T04:33:52;17.40;95.10
44643;DHT22;33930;-34.276;150.954;2022-08-14T04:36:21;17.40;95.90
44643;DHT22;33930;-34.276;150.954;2022-08-14T04:38:48;17.30;96.10
44643;DHT22;33930;-34.276;150.954;2022-08-14T04:41:33;17.30;94.90
44643;DHT22;33930;-34.276;150.954;2022-08-14T04:44:19;17.30;95.50
44643;DHT22;33930;-34.276;150.954;2022-08-14T04:46:46;17.10;94.90
44643;DHT22;33930;-34.276;150.954;2022-08-14T04:49:34;16.90;95.10
44643;DHT22;33930;-34.276;150.954;2022-08-14T04:52:01;17.00;95.60
44643;DHT22;33930;-34.276;150.954;2022-08-14T04:54:32;16.90;95.50
44643;DHT22;33930;-34.276;150.954;2022-08-14T04:56:59;16.90;95.20
44643;DHT22;33930;-34.276;150.954;2022-08-14T04:59:27;16.80;95.20
44643;DHT22;33930;-34.276;150.954;2022-08-14T05:01:54;16.80;95.60
44643;DHT22;33930;-34.276;150.954;2022-08-14T05:04:23;16.50;97.20
44643;DHT22;33930;-34.276;150.954;2022-08-14T05:06:52;16.40;97.50
44643;DHT22;33930;-34.276;150.954;2022-08-14T05:09:23;16.40;96.90
44643;DHT22;33930;-34.276;150.954;2022-08-14T05:11:50;16.40;96.60
44643;DHT22;33930;-34.276;150.954;2022-08-14T05:14:19;16.30;96.90
44643;DHT22;33930;-34.276;150.954;2022-08-14T05:16:47;16.30;97.00
44643;DHT22;33930;-34.276;150.954;2022-08-14T05:19:15;16.10;97.80
44643;DHT22;33930;-34.276;150.954;2022-08-14T05:21:43;16.10;97.40
44643;DHT22;33930;-34.276;150.954;2022-08-14T05:24:10;16.20;96.70
44643;DHT22;33930;-34.276;150.954;2022-08-14T05:26:38;16.20;96.50
44643;DHT22;33930;-34.276;150.954;2022-08-14T05:29:07;16.00;98.50
44643;DHT22;33930;-34.276;150.954;2022-08-14T05:31:35;16.10;96.70
44643;DHT22;33930;-34.276;150.954;2022-08-14T05:34:08;16.00;96.70
44643;DHT22;33930;-34.276;150.954;2022-08-14T05:36:37;16.00;98.60
44643;DHT22;33930;-34.276;150.954;2022-08-14T05:39:04;15.90;98.00
44643;DHT22;33930;-34.276;150.954;2022-08-14T05:41:32;15.80;98.70
44643;DHT22;33930;-34.276;150.954;2022-08-14T05:44:00;15.70;98.40
44643;DHT22;33930;-34.276;150.954;2022-08-14T05:46:27;15.50;99.90
44643;DHT22;33930;-34.276;150.954;2022-08-14T05:48:57;15.40;99.90
44643;DHT22;33930;-34.276;150.954;2022-08-14T05:51:25;15.30;99.50
44643;DHT22;33930;-34.276;150.954;2022-08-14T05:53:54;15.20;99.90
44643;DHT22;33930;-34.276;150.954;2022-08-14T05:56:23;15.20;99.00
44643;DHT22;33930;-34.276;150.954;2022-08-14T05:58:52;15.20;99.00
44643;DHT22;33930;-34.276;150.954;2022-08-14T06:01:19;15.00;99.90
44643;DHT22;33930;-34.276;150.954;2022-08-14T06:03:47;14.90;99.90
44643;DHT22;33930;-34.276;150.954;2022-08-14T06:06:14;14.70;99.90
44643;DHT22;33930;-34.276;150.954;2022-08-14T06:08:41;14.50;99.90
44643;DHT22;33930;-34.276;150.954;2022-08-14T06:11:09;14.50;98.30
44643;DHT22;33930;-34.276;150.954;2022-08-14T06:13:38;14.40;99.40
44643;DHT22;33930;-34.276;150.954;2022-08-14T06:16:06;14.40;99.90
44643;DHT22;33930;-34.276;150.954;2022-08-14T06:18:34;14.50;99.90
44643;DHT22;33930;-34.276;150.954;2022-08-14T06:21:03;14.30;99.90
44643;DHT22;33930;-34.276;150.954;2022-08-14T06:23:30;14.20;99.90
44643;DHT22;33930;-34.276;150.954;2022-08-14T06:25:58;14.10;99.90
44643;DHT22;33930;-34.276;150.954;2022-08-14T06:28:26;14.00;99.90
44643;DHT22;33930;-34.276;150.954;2022-08-14T06:30:53;13.80;99.90
44643;DHT22;33930;-34.276;150.954;2022-08-14T06:33:21;13.80;99.90
44643;DHT22;33930;-34.276;150.954;2022-08-14T06:35:49;13.70;99.90
44643;DHT22;33930;-34.276;150.954;2022-08-14T06:38:18;13.70;99.90
44643;DHT22;33930;-34.276;150.954;2022-08-14T06:40:47;13.50;99.90
44643;DHT22;33930;-34.276;150.954;2022-08-14T06:43:18;13.40;99.90
44643;DHT22;33930;-34.276;150.954;2022-08-14T06:45:47;13.30;99.90
44643;DHT22;33930;-34.276;150.954;2022-08-14T06:48:19;13.20;99.90
44643;DHT22;33930;-34.276;150.954;2022-08-14T06:50:49;13.20;99.90
44643;DHT22;33930;-34.276;150.954;2022-08-14T06:53:17;13.20;99.90
44643;DHT22;33930;-34.276;150.954;2022-08-14T06:55:46;13.20;99.90
44643;DHT22;33930;-34.276;150.954;2022-08-14T06:58:15;13.10;99.90
44643;DHT22;33930;-34.276;150.954;2022-08-14T07:00:43;12.90;99.90
44643;DHT22;33930;-34.276;150.954;2022-08-14T07:03:32;12.80;99.90
44643;DHT22;33930;-34.276;150.954;2022-08-14T07:06:18;12.70;99.90
44643;DHT22;33930;-34.276;150.954;2022-08-14T07:08:45;12.50;99.90
44643;DHT22;33930;-34.276;150.954;2022-08-14T07:11:13;12.50;99.90
44643;DHT22;33930;-34.276;150.954;2022-08-14T07:13:40;12.50;99.90
44643;DHT22;33930;-34.276;150.954;2022-08-14T07:16:08;12.40;99.90
44643;DHT22;33930;-34.276;150.954;2022-08-14T07:18:39;12.30;99.90
44643;DHT22;33930;-34.276;150.954;2022-08-14T07:21:08;12.30;99.90
44643;DHT22;33930;-34.276;150.954;2022-08-14T07:23:35;12.20;99.90
44643;DHT22;33930;-34.276;150.954;2022-08-14T07:26:04;12.20;99.90
44643;DHT22;33930;-34.276;150.954;2022-08-14T07:28:33;12.20;99.90
44643;DHT22;33930;-34.276;150.954;2022-08-14T07:31:04;12.20;99.90
44643;DHT22;33930;-34.276;150.954;2022-08-14T07:33:43;12.10;99.90
44643;DHT22;33930;-34.276;150.954;2022-08-14T07:36:17;12.00;99.90
44643;DHT22;33930;-34.276;150.954;2022-08-14T07:38:44;12.00;99.90
44643;DHT22;33930;-34.276;150.954;2022-08-14T07:41:12;12.00;99.90
44643;DHT22;33930;-34.276;150.954;2022-08-14T07:43:40;11.90;99.90
44643;DHT22;33930;-34.276;150.954;2022-08-14T07:46:08;11.90;99.90
44643;DHT22;33930;-34.276;150.954;2022-08-14T07:48:39;11.80;99.90
44643;DHT22;33930;-34.276;150.954;2022-08-14T07:51:09;11.70;99.90
44643;DHT22;33930;-34.276;150.954;2022-08-14T07:53:37;11.70;99.90
44643;DHT22;33930;-34.276;150.954;2022-08-14T07:56:05;11.70;99.90
44643;DHT22;33930;-34.276;150.954;2022-08-14T07:58:32;11.70;99.90
44643;DHT22;33930;-34.276;150.954;2022-08-14T08:01:00;11.70;99.90
44643;DHT22;33930;-34.276;150.954;2022-08-14T08:03:28;11.80;99.90
44643;DHT22;33930;-34.276;150.954;2022-08-14T08:06:00;11.80;99.90
44643;DHT22;33930;-34.276;150.954;2022-08-14T08:08:29;11.80;99.90
44643;DHT22;33930;-34.276;150.954;2022-08-14T08:10:57;11.80;99.90
44643;DHT22;33930;-34.276;150.954;2022-08-14T08:13:26;11.70;99.90
44643;DHT22;33930;-34.276;150.954;2022-08-14T08:15:55;11.70;99.90
44643;DHT22;33930;-34.276;150.954;2022-08-14T08:18:23;11.60;99.90
44643;DHT22;33930;-34.276;150.954;2022-08-14T08:20:53;11.50;99.90
44643;DHT22;33930;-34.276;150.954;2022-08-14T08:23:22;11.50;99.90
44643;DHT22;33930;-34.276;150.954;2022-08-14T08:25:52;11.40;99.90
44643;DHT22;33930;-34.276;150.954;2022-08-14T08:28:21;11.40;99.90
44643;DHT22;33930;-34.276;150.954;2022-08-14T08:30:54;11.40;99.90
44643;DHT22;33930;-34.276;150.954;2022-08-14T08:33:23;11.30;99.90
44643;DHT22;33930;-34.276;150.954;2022-08-14T08:35:51;11.20;99.90
44643;DHT22;33930;-34.276;150.954;2022-08-14T08:38:22;11.20;99.90
44643;DHT22;33930;-34.276;150.954;2022-08-14T08:40:52;11.10;99.90
44643;DHT22;33930;-34.276;150.954;2022-08-14T08:45:58;11.00;99.90
44643;DHT22;33930;-34.276;150.954;2022-08-14T08:48:28;11.00;99.90
44643;DHT22;33930;-34.276;150.954;2022-08-14T08:51:00;11.00;99.90
44643;DHT22;33930;-34.276;150.954;2022-08-14T08:53:33;10.80;99.90
44643;DHT22;33930;-34.276;150.954;2022-08-14T08:56:01;10.80;99.90
44643;DHT22;33930;-34.276;150.954;2022-08-14T08:58:30;10.80;99.90
44643;DHT22;33930;-34.276;150.954;2022-08-14T09:00:58;10.90;99.90
44643;DHT22;33930;-34.276;150.954;2022-08-14T09:03:28;10.70;99.90
44643;DHT22;33930;-34.276;150.954;2022-08-14T09:06:03;10.70;99.90
44643;DHT22;33930;-34.276;150.954;2022-08-14T09:08:33;10.70;99.90
44643;DHT22;33930;-34.276;150.954;2022-08-14T09:11:07;10.60;99.90
44643;DHT22;33930;-34.276;150.954;2022-08-14T09:13:35;10.60;99.90
44643;DHT22;33930;-34.276;150.954;2022-08-14T09:16:03;10.60;99.90
44643;DHT22;33930;-34.276;150.954;2022-08-14T09:18:30;10.60;99.90
44643;DHT22;33930;-34.276;150.954;2022-08-14T09:20:58;10.60;99.90
44643;DHT22;33930;-34.276;150.954;2022-08-14T09:23:25;10.60;99.90
44643;DHT22;33930;-34.276;150.954;2022-08-14T09:25:52;10.60;99.90
44643;DHT22;33930;-34.276;150.954;2022-08-14T09:28:20;10.60;99.90
44643;DHT22;33930;-34.276;150.954;2022-08-14T09:30:58;10.60;99.90
44643;DHT22;33930;-34.276;150.954;2022-08-14T09:45:12;11.00;99.90
44643;DHT22;33930;-34.276;150.954;2022-08-14T09:47:51;11.20;99.90
44643;DHT22;33930;-34.276;150.954;2022-08-14T09:50:27;11.20;99.90
44643;DHT22;33930;-34.276;150.954;2022-08-14T09:53:06;11.20;99.90
44643;DHT22;33930;-34.276;150.954;2022-08-14T09:55:35;11.30;99.90
44643;DHT22;33930;-34.276;150.954;2022-08-14T09:58:14;11.30;99.90
44643;DHT22;33930;-34.276;150.954;2022-08-14T10:00:52;11.30;99.90
44643;DHT22;33930;-34.276;150.954;2022-08-14T10:03:32;11.30;99.90
44643;DHT22;33930;-34.276;150.954;2022-08-14T10:06:11;11.20;99.90
44643;DHT22;33930;-34.276;150.954;2022-08-14T10:08:52;11.10;99.90
44643;DHT22;33930;-34.276;150.954;2022-08-14T10:11:29;11.00;99.90
44643;DHT22;33930;-34.276;150.954;2022-08-14T10:14:19;11.00;99.90
44643;DHT22;33930;-34.276;150.954;2022-08-14T10:16:49;11.00;99.90
44643;DHT22;33930;-34.276;150.954;2022-08-14T10:19:18;11.00;99.90
44643;DHT22;33930;-34.276;150.954;2022-08-14T10:22:07;11.00;99.90
44643;DHT22;33930;-34.276;150.954;2022-08-14T10:24:43;11.00;99.90
44643;DHT22;33930;-34.276;150.954;2022-08-14T10:27:16;10.90;99.90
44643;DHT22;33930;-34.276;150.954;2022-08-14T10:29:54;10.80;99.90
44643;DHT22;33930;-34.276;150.954;2022-08-14T10:32:22;10.80;99.90
44643;DHT22;33930;-34.276;150.954;2022-08-14T10:35:01;10.80;99.90
44643;DHT22;33930;-34.276;150.954;2022-08-14T10:37:37;10.80;99.90
44643;DHT22;33930;-34.276;150.954;2022-08-14T10:40:06;10.80;99.90
44643;DHT22;33930;-34.276;150.954;2022-08-14T10:42:41;10.70;99.90
44643;DHT22;33930;-34.276;150.954;2022-08-14T10:45:20;10.70;99.90
44643;DHT22;33930;-34.276;150.954;2022-08-14T10:47:49;10.60;99.90
44643;DHT22;33930;-34.276;150.954;2022-08-14T10:50:32;10.60;99.90
44643;DHT22;33930;-34.276;150.954;2022-08-14T10:53:00;10.60;99.90
44643;DHT22;33930;-34.276;150.954;2022-08-14T10:55:33;10.60;99.90
44643;DHT22;33930;-34.276;150.954;2022-08-14T10:58:06;10.70;99.90
44643;DHT22;33930;-34.276;150.954;2022-08-14T11:00:38;10.70;99.90
44643;DHT22;33930;-34.276;150.954;2022-08-14T11:03:09;10.70;99.90
44643;DHT22;33930;-34.276;150.954;2022-08-14T11:05:43;10.60;99.90
44643;DHT22;33930;-34.276;150.954;2022-08-14T11:08:12;10.70;99.90
44643;DHT22;33930;-34.276;150.954;2022-08-14T11:10:55;10.70;99.90
44643;DHT22;33930;-34.276;150.954;2022-08-14T11:13:27;10.70;99.90
44643;DHT22;33930;-34.276;150.954;2022-08-14T11:15:57;10.70;99.90
44643;DHT22;33930;-34.276;150.954;2022-08-14T11:18:29;10.70;99.90
44643;DHT22;33930;-34.276;150.954;2022-08-14T11:20:59;10.80;99.90
44643;DHT22;33930;-34.276;150.954;2022-08-14T11:23:33;10.70;99.90
44643;DHT22;33930;-34.276;150.954;2022-08-14T11:26:02;10.70;99.90
44643;DHT22;33930;-34.276;150.954;2022-08-14T11:28:38;10.60;99.90
44643;DHT22;33930;-34.276;150.954;2022-08-14T11:31:09;10.60;99.90
44643;DHT22;33930;-34.276;150.954;2022-08-14T11:33:36;10.60;99.90
44643;DHT22;33930;-34.276;150.954;2022-08-14T11:36:06;10.70;99.90
44643;DHT22;33930;-34.276;150.954;2022-08-14T11:38:37;10.70;99.90
44643;DHT22;33930;-34.276;150.954;2022-08-14T11:41:05;10.90;99.90
44643;DHT22;33930;-34.276;150.954;2022-08-14T11:43:38;10.90;99.90
44643;DHT22;33930;-34.276;150.954;2022-08-14T11:46:06;10.90;99.90
44643;DHT22;33930;-34.276;150.954;2022-08-14T11:48:55;10.90;99.90
44643;DHT22;33930;-34.276;150.954;2022-08-14T11:51:24;10.90;99.90
44643;DHT22;33930;-34.276;150.954;2022-08-14T11:53:56;10.90;99.90
44643;DHT22;33930;-34.276;150.954;2022-08-14T11:56:24;11.00;99.90
44643;DHT22;33930;-34.276;150.954;2022-08-14T11:58:52;11.10;99.90
44643;DHT22;33930;-34.276;150.954;2022-08-14T12:01:28;11.20;99.90
44643;DHT22;33930;-34.276;150.954;2022-08-14T12:04:15;11.20;99.90
44643;DHT22;33930;-34.276;150.954;2022-08-14T12:06:53;11.20;99.90
44643;DHT22;33930;-34.276;150.954;2022-08-14T12:09:37;11.20;99.90
44643;DHT22;33930;-34.276;150.954;2022-08-14T12:12:19;11.30;99.90
44643;DHT22;33930;-34.276;150.954;2022-08-14T12:14:58;11.20;99.90
44643;DHT22;33930;-34.276;150.954;2022-08-14T12:17:28;11.20;99.90
44643;DHT22;33930;-34.276;150.954;2022-08-14T12:20:00;11.30;99.90
44643;DHT22;33930;-34.276;150.954;2022-08-14T12:22:35;11.30;99.90
44643;DHT22;33930;-34.276;150.954;2022-08-14T12:25:17;11.40;99.90
44643;DHT22;33930;-34.276;150.954;2022-08-14T12:27:47;11.50;99.90
44643;DHT22;33930;-34.276;150.954;2022-08-14T12:30:36;11.50;99.90
44643;DHT22;33930;-34.276;150.954;2022-08-14T12:33:17;11.40;99.90
44643;DHT22;33930;-34.276;150.954;2022-08-14T12:35:47;11.40;99.90
44643;DHT22;33930;-34.276;150.954;2022-08-14T12:38:16;11.30;99.90
44643;DHT22;33930;-34.276;150.954;2022-08-14T12:40:51;11.20;99.90
44643;DHT22;33930;-34.276;150.954;2022-08-14T12:43:19;11.30;99.90
44643;DHT22;33930;-34.276;150.954;2022-08-14T12:45:49;11.20;99.90
44643;DHT22;33930;-34.276;150.954;2022-08-14T12:48:18;11.20;99.90
44643;DHT22;33930;-34.276;150.954;2022-08-14T12:50:46;11.20;99.90
44643;DHT22;33930;-34.276;150.954;2022-08-14T12:53:14;11.30;99.90
44643;DHT22;33930;-34.276;150.954;2022-08-14T12:55:44;11.30;99.90
44643;DHT22;33930;-34.276;150.954;2022-08-14T12:58:11;11.30;99.90
44643;DHT22;33930;-34.276;150.954;2022-08-14T13:00:48;11.30;99.90
44643;DHT22;33930;-34.276;150.954;2022-08-14T13:03:26;11.30;99.90
44643;DHT22;33930;-34.276;150.954;2022-08-14T13:05:54;11.30;99.90
44643;DHT22;33930;-34.276;150.954;2022-08-14T13:08:22;11.30;99.90
44643;DHT22;33930;-34.276;150.954;2022-08-14T13:10:51;11.20;99.90
44643;DHT22;33930;-34.276;150.954;2022-08-14T13:13:20;11.20;99.90
44643;DHT22;33930;-34.276;150.954;2022-08-14T13:15:48;11.10;99.90
44643;DHT22;33930;-34.276;150.954;2022-08-14T13:18:21;11.10;99.90
44643;DHT22;33930;-34.276;150.954;2022-08-14T13:20:50;11.00;99.90
44643;DHT22;33930;-34.276;150.954;2022-08-14T13:23:18;11.00;99.90
44643;DHT22;33930;-34.276;150.954;2022-08-14T13:25:50;11.00;99.90
44643;DHT22;33930;-34.276;150.954;2022-08-14T13:28:19;10.90;99.90
44643;DHT22;33930;-34.276;150.954;2022-08-14T13:30:49;10.90;99.90
44643;DHT22;33930;-34.276;150.954;2022-08-14T13:33:16;10.90;99.90
44643;DHT22;33930;-34.276;150.954;2022-08-14T13:35:49;10.80;99.90
44643;DHT22;33930;-34.276;150.954;2022-08-14T13:38:19;10.90;99.90
44643;DHT22;33930;-34.276;150.954;2022-08-14T13:40:54;10.90;99.90
44643;DHT22;33930;-34.276;150.954;2022-08-14T13:43:23;10.90;99.90
44643;DHT22;33930;-34.276;150.954;2022-08-14T13:45:53;10.90;99.90
44643;DHT22;33930;-34.276;150.954;2022-08-14T13:48:23;10.90;99.90
44643;DHT22;33930;-34.276;150.954;2022-08-14T13:50:54;10.90;99.90
44643;DHT22;33930;-34.276;150.954;2022-08-14T13:53:24;10.80;99.90
44643;DHT22;33930;-34.276;150.954;2022-08-14T13:55:55;10.70;99.90
44643;DHT22;33930;-34.276;150.954;2022-08-14T13:58:24;10.70;99.90
44643;DHT22;33930;-34.276;150.954;2022-08-14T14:00:52;10.70;99.90
44643;DHT22;33930;-34.276;150.954;2022-08-14T14:03:21;10.70;99.90
44643;DHT22;33930;-34.276;150.954;2022-08-14T14:05:50;10.70;99.90
44643;DHT22;33930;-34.276;150.954;2022-08-14T14:08:20;10.60;99.90
44643;DHT22;33930;-34.276;150.954;2022-08-14T14:10:48;10.70;99.90
44643;DHT22;33930;-34.276;150.954;2022-08-14T14:13:15;10.70;99.90
44643;DHT22;33930;-34.276;150.954;2022-08-14T14:15:47;10.70;99.90
44643;DHT22;33930;-34.276;150.954;2022-08-14T14:18:14;10.70;99.90
44643;DHT22;33930;-34.276;150.954;2022-08-14T14:20:45;10.70;99.90
44643;DHT22;33930;-34.276;150.954;2022-08-14T14:23:13;10.70;99.90
44643;DHT22;33930;-34.276;150.954;2022-08-14T14:25:42;10.60;99.90
44643;DHT22;33930;-34.276;150.954;2022-08-14T14:28:14;10.60;99.90
44643;DHT22;33930;-34.276;150.954;2022-08-14T14:30:46;10.50;99.90
44643;DHT22;33930;-34.276;150.954;2022-08-14T14:33:13;10.50;99.90
44643;DHT22;33930;-34.276;150.954;2022-08-14T14:35:45;10.50;99.90
44643;DHT22;33930;-34.276;150.954;2022-08-14T14:38:15;10.40;99.90
44643;DHT22;33930;-34.276;150.954;2022-08-14T14:40:46;10.40;99.90
44643;DHT22;33930;-34.276;150.954;2022-08-14T14:43:15;10.40;99.90
44643;DHT22;33930;-34.276;150.954;2022-08-14T14:45:44;10.30;99.90
44643;DHT22;33930;-34.276;150.954;2022-08-14T14:48:14;10.30;99.90
44643;DHT22;33930;-34.276;150.954;2022-08-14T14:50:41;10.40;99.90
44643;DHT22;33930;-34.276;150.954;2022-08-14T14:53:09;10.40;99.90
44643;DHT22;33930;-34.276;150.954;2022-08-14T14:55:37;10.30;99.90
44643;DHT22;33930;-34.276;150.954;2022-08-14T14:58:07;10.20;99.90
44643;DHT22;33930;-34.276;150.954;2022-08-14T15:00:36;10.10;99.90
44643;DHT22;33930;-34.276;150.954;2022-08-14T15:03:03;10.00;99.90
44643;DHT22;33930;-34.276;150.954;2022-08-14T15:05:31;10.00;99.90
44643;DHT22;33930;-34.276;150.954;2022-08-14T15:07:58;9.90;99.90
44643;DHT22;33930;-34.276;150.954;2022-08-14T15:10:25;9.90;99.90
44643;DHT22;33930;-34.276;150.954;2022-08-14T15:12:53;9.80;99.90
44643;DHT22;33930;-34.276;150.954;2022-08-14T15:15:20;9.80;99.90
44643;DHT22;33930;-34.276;150.954;2022-08-14T15:17:48;9.80;99.90
44643;DHT22;33930;-34.276;150.954;2022-08-14T15:20:15;9.80;99.90
44643;DHT22;33930;-34.276;150.954;2022-08-14T15:22:44;9.80;99.90